Terminal Aerodrome Forecast
Issued by NWS Wilmington, OH

Current Version | Previous Version | Graphics & Text | Print | Product List | Glossary On
Versions: 1 2 3 4 5 6 7 8 9 10 11 12 13 14 15 16 17 18 19 20 21 22 23 24 25 26 27 28 29 30 31 32
519
FTUS41 KILN 270540
TAFDAY
TAF
KDAY 270540Z 2706/2806 04010KT 2SM -SHRA BR SCT007 OVC035
      TEMPO 2706/2707 BKN007
     FM270700 06011KT P6SM OVC012
     FM271500 07009KT P6SM OVC022
     FM272000 06010KT P6SM BKN035=

USA.gov is the U.S. government's official web portal to all federal, state and local government web resources and services.